Time;durP1;ratioP1;P1;durP2;ratioP2;P2;SDS_P1;SDS_P2;PMS_P1;PMS_P2;Temp;Humidity;BMP_temperature;BMP_pressure;BME280_temperature;BME280_humidity;BME280_pressure;Samples;Min_cycle;Max_cycle;Signal;HPM_P1;HPM_P2
2022/04/16 00:01:27;;;;;;;23.63;12.90;;;;;;;6.62;100.00;101967.97;5071650;28;20218;-73
2022/04/16 00:03:52;;;;;;;24.83;13.70;;;;;;;6.58;100.00;101969.53;5072885;28;20327;-73
2022/04/16 00:06:18;;;;;;;28.40;13.70;;;;;;;6.58;100.00;101972.25;5072766;28;20217;-73
2022/04/16 00:08:43;;;;;;;19.50;12.90;;;;;;;6.59;100.00;101986.66;5072642;28;20312;-72
2022/04/16 00:11:08;;;;;;;18.37;12.33;;;;;;;6.50;100.00;101983.50;5071326;28;20179;-72
2022/04/16 00:13:34;;;;;;;19.67;13.60;;;;;;;6.51;100.00;101986.00;5071401;28;20175;-72
2022/04/16 00:15:59;;;;;;;22.03;13.67;;;;;;;6.43;100.00;101985.56;5071769;28;20183;-73
2022/04/16 00:18:25;;;;;;;20.23;11.77;;;;;;;6.43;100.00;101983.69;5071376;28;20767;-73
2022/04/16 00:20:51;;;;;;;16.17;12.80;;;;;;;6.44;100.00;101988.03;5072697;28;20551;-73
2022/04/16 00:23:20;;;;;;;24.03;12.30;;;;;;;6.43;100.00;101989.13;5072639;28;20179;-72
2022/04/16 00:25:47;;;;;;;17.50;11.40;;;;;;;6.39;100.00;101985.25;5072538;28;20202;-72
2022/04/16 00:28:13;;;;;;;17.93;11.97;;;;;;;6.40;100.00;101986.91;5071475;28;20182;-73
2022/04/16 00:30:39;;;;;;;13.10;10.77;;;;;;;6.38;100.00;101988.22;5071208;28;20171;-73
2022/04/16 00:33:10;;;;;;;13.60;10.60;;;;;;;6.35;100.00;101996.81;5072490;28;20265;-73
2022/04/16 00:35:37;;;;;;;16.20;10.30;;;;;;;6.30;100.00;101989.41;5072493;28;20192;-73
2022/04/16 00:38:03;;;;;;;15.30;10.90;;;;;;;6.28;100.00;101994.28;5070830;28;20171;-73
2022/04/16 00:40:29;;;;;;;13.60;10.80;;;;;;;6.23;100.00;101989.59;5070836;28;20198;-73
2022/04/16 00:42:54;;;;;;;10.37;8.60;;;;;;;6.22;100.00;101985.22;5072259;28;20228;-73
2022/04/16 00:45:20;;;;;;;13.03;9.83;;;;;;;6.23;100.00;101980.63;5072101;28;20711;-74
2022/04/16 00:47:45;;;;;;;12.27;8.40;;;;;;;6.21;100.00;101993.59;5072031;28;20255;-72
2022/04/16 00:50:11;;;;;;;12.13;8.93;;;;;;;6.20;100.00;101995.47;5070128;28;20178;-73
2022/04/16 00:52:38;;;;;;;9.07;7.10;;;;;;;6.17;100.00;101995.97;5070837;28;20179;-73
2022/04/16 00:55:06;;;;;;;10.20;7.97;;;;;;;6.16;100.00;101993.50;5070597;28;20228;-75
2022/04/16 00:57:31;;;;;;;9.60;8.57;;;;;;;6.12;100.00;101995.06;5071711;28;20248;-73
2022/04/16 00:59:57;;;;;;;11.17;7.53;;;;;;;6.16;100.00;102010.63;5070261;28;20645;-72
2022/04/16 01:02:22;;;;;;;13.67;8.30;;;;;;;6.14;100.00;102003.78;5071829;28;20162;-72
2022/04/16 01:04:48;;;;;;;11.70;7.50;;;;;;;6.09;100.00;102011.84;5070320;28;20551;-73
2022/04/16 01:07:13;;;;;;;10.20;7.93;;;;;;;6.08;100.00;102004.78;5070891;28;20265;-72
2022/04/16 01:09:39;;;;;;;14.17;8.33;;;;;;;6.05;100.00;102000.63;5069732;28;20224;-73
2022/04/16 01:12:05;;;;;;;10.07;7.33;;;;;;;6.03;100.00;101999.22;5069921;28;20269;-74
2022/04/16 01:14:32;;;;;;;8.87;8.03;;;;;;;5.89;100.00;101998.66;5069968;28;20189;-73
2022/04/16 01:16:58;;;;;;;8.47;7.67;;;;;;;5.83;100.00;102008.59;5070978;28;20267;-73
2022/04/16 01:19:25;;;;;;;10.90;7.47;;;;;;;5.79;100.00;102003.91;5069842;28;20224;-72
2022/04/16 01:21:50;;;;;;;8.27;6.70;;;;;;;5.78;100.00;102008.47;5070957;28;20476;-72
2022/04/16 01:24:16;;;;;;;9.30;6.70;;;;;;;5.78;100.00;102013.91;5071174;28;20217;-72
2022/04/16 01:26:42;;;;;;;10.27;7.63;;;;;;;5.79;100.00;102020.19;5070748;28;20190;-72
2022/04/16 01:29:11;;;;;;;9.50;8.07;;;;;;;5.74;100.00;102017.34;5069336;28;20269;-73
2022/04/16 01:31:36;;;;;;;10.17;8.47;;;;;;;5.71;100.00;102029.50;5070855;28;20186;-73
2022/04/16 01:34:03;;;;;;;9.20;7.80;;;;;;;5.68;100.00;102028.09;5070672;28;20178;-73
2022/04/16 01:36:34;;;;;;;11.50;6.50;;;;;;;5.67;100.00;102028.34;5069490;28;20174;-74
2022/04/16 01:39:00;;;;;;;12.33;7.70;;;;;;;5.60;100.00;102036.59;5069352;28;20202;-73
2022/04/16 01:41:25;;;;;;;9.30;5.30;;;;;;;5.63;100.00;102035.28;5071185;28;20661;-73
2022/04/16 01:43:51;;;;;;;7.43;6.13;;;;;;;5.60;100.00;102030.34;5070892;28;20198;-73
2022/04/16 01:46:17;;;;;;;6.10;5.50;;;;;;;5.56;100.00;102037.31;5070759;28;20224;-73
2022/04/16 01:48:42;;;;;;;7.60;5.33;;;;;;;5.54;100.00;102029.44;5070410;28;20174;-73
2022/04/16 01:51:08;;;;;;;5.90;5.30;;;;;;;5.47;100.00;102033.31;5070437;28;20181;-73
2022/04/16 01:53:34;;;;;;;6.10;4.97;;;;;;;5.50;100.00;102038.28;5070770;28;20180;-73
2022/04/16 01:56:00;;;;;;;6.97;5.53;;;;;;;5.44;100.00;102034.63;5071075;28;20253;-73
2022/04/16 01:58:25;;;;;;;6.80;5.77;;;;;;;5.43;100.00;102029.44;5070564;28;20468;-76
2022/04/16 02:00:51;;;;;;;4.53;4.13;;;;;;;5.44;100.00;102042.75;5070084;28;20178;-72
2022/04/16 02:03:16;;;;;;;7.57;5.60;;;;;;;5.37;99.68;102034.75;5069559;28;20189;-73
2022/04/16 02:05:42;;;;;;;5.67;5.17;;;;;;;5.36;99.95;102040.41;5070328;28;20558;-73
2022/04/16 02:08:07;;;;;;;6.60;4.77;;;;;;;5.41;100.00;102037.00;5070301;28;20174;-79
2022/04/16 02:10:34;;;;;;;5.40;4.77;;;;;;;5.39;100.00;102042.66;5070432;28;20170;-73
2022/04/16 02:13:00;;;;;;;5.90;5.30;;;;;;;5.32;100.00;102037.34;5070438;28;20632;-73
2022/04/16 02:15:27;;;;;;;4.70;4.30;;;;;;;5.24;99.94;102048.56;5070308;28;20227;-76
2022/04/16 02:17:53;;;;;;;7.10;5.37;;;;;;;5.19;100.00;102040.28;5070212;28;20179;-73
2022/04/16 02:20:18;;;;;;;6.07;4.77;;;;;;;5.18;99.91;102043.22;5070105;28;20174;-74
2022/04/16 02:22:46;;;;;;;7.50;4.73;;;;;;;5.10;99.67;102049.84;5070519;28;20177;-76
2022/04/16 02:25:13;;;;;;;5.10;4.60;;;;;;;5.05;99.60;102050.53;5070219;28;20201;-73
2022/04/16 02:27:39;;;;;;;5.77;5.17;;;;;;;5.01;99.44;102049.34;5070088;28;20166;-74
2022/04/16 02:30:10;;;;;;;5.47;4.33;;;;;;;4.99;99.07;102051.47;5068885;28;20180;-73
2022/04/16 02:32:41;;;;;;;4.60;4.20;;;;;;;4.94;99.04;102051.38;5068861;28;20216;-77
2022/04/16 02:35:07;;;;;;;4.27;3.73;;;;;;;4.89;98.95;102058.53;5070110;28;20171;-76
2022/04/16 02:37:33;;;;;;;3.67;3.37;;;;;;;4.85;98.95;102060.06;5068581;28;20182;-73
2022/04/16 02:39:58;;;;;;;5.17;3.50;;;;;;;4.84;99.17;102066.53;5068687;28;20206;-73
2022/04/16 02:42:24;;;;;;;3.83;3.53;;;;;;;4.77;99.90;102070.19;5070108;28;20181;-74
2022/04/16 02:47:33;;;;;;;3.87;3.20;;;;;;;4.59;100.00;102081.06;5070066;28;20189;-73
2022/04/16 02:49:58;;;;;;;3.80;3.40;;;;;;;4.46;100.00;102086.66;5070004;28;20650;-73
2022/04/16 02:52:25;;;;;;;4.07;3.07;;;;;;;4.33;100.00;102090.38;5070279;28;20179;-75
2022/04/16 02:54:52;;;;;;;3.20;2.90;;;;;;;4.23;100.00;102087.41;5068671;28;20179;-74
2022/04/16 02:57:18;;;;;;;4.00;3.10;;;;;;;4.07;99.71;102094.28;5069806;28;20171;-73
2022/04/16 02:59:43;;;;;;;3.43;2.57;;;;;;;4.00;100.00;102085.41;5069339;28;20190;-73
2022/04/16 03:02:08;;;;;;;3.20;2.27;;;;;;;3.94;99.30;102089.03;5069866;28;20182;-73
2022/04/16 03:04:34;;;;;;;2.50;2.30;;;;;;;3.76;99.02;102099.84;5068115;28;20195;-73
2022/04/16 03:06:59;;;;;;;2.80;2.60;;;;;;;3.71;98.94;102099.69;5067935;28;20600;-73
2022/04/16 03:09:24;;;;;;;1.70;1.60;;;;;;;3.65;99.30;102109.53;5069669;28;20602;-76
2022/04/16 03:11:50;;;;;;;5.60;2.70;;;;;;;3.51;99.36;102116.13;5069755;28;20179;-72
2022/04/16 03:19:45;;;;;;;3.40;2.00;;;;;;;3.26;100.00;102116.97;5070969;28;20193;-73
2022/04/16 03:22:11;;;;;;;3.60;2.67;;;;;;;3.19;100.00;102120.81;5073107;28;20182;-74
2022/04/16 03:24:36;;;;;;;2.37;2.17;;;;;;;3.14;100.00;102120.63;5073770;28;20608;-76
2022/04/16 03:27:01;;;;;;;3.83;2.37;;;;;;;3.05;100.00;102130.06;5073952;28;20172;-72
2022/04/16 03:29:27;;;;;;;2.83;2.50;;;;;;;3.01;100.00;102131.50;5073909;28;20548;-72
2022/04/16 03:31:52;;;;;;;2.80;2.00;;;;;;;2.95;100.00;102144.03;5072605;28;20174;-73
2022/04/16 03:34:17;;;;;;;2.20;2.10;;;;;;;2.86;100.00;102138.06;5074240;28;20170;-73
2022/04/16 03:36:43;;;;;;;2.57;2.27;;;;;;;2.81;100.00;102137.91;5072616;28;20194;-73
2022/04/16 03:39:09;;;;;;;2.47;2.27;;;;;;;2.72;100.00;102138.38;5072090;28;20190;-73
2022/04/16 03:41:34;;;;;;;3.07;2.87;;;;;;;2.67;100.00;102141.72;5072587;28;20175;-72
2022/04/16 03:44:00;;;;;;;2.43;1.83;;;;;;;2.63;100.00;102141.34;5072383;28;20198;-74
2022/04/16 03:46:25;;;;;;;3.77;2.70;;;;;;;2.56;100.00;102145.94;5073487;28;20723;-73
2022/04/16 03:48:50;;;;;;;5.70;2.43;;;;;;;2.52;100.00;102141.19;5073206;28;20357;-73
2022/04/16 03:51:16;;;;;;;2.27;2.00;;;;;;;2.45;100.00;102140.38;5072304;28;20258;-73
2022/04/16 03:53:41;;;;;;;2.57;2.33;;;;;;;2.41;100.00;102137.28;5073658;28;20170;-72
2022/04/16 03:59:59;;;;;;;2.23;2.03;;;;;;;2.32;100.00;102144.81;5073372;28;20162;-72
2022/04/16 04:01:42;;;;;;;2.33;2.13;;;;;;;2.33;100.00;102138.38;5073293;28;20187;-72
2022/04/16 04:04:07;;;;;;;4.40;2.03;;;;;;;2.28;100.00;102145.44;5073351;28;20209;-73
2022/04/16 04:06:32;;;;;;;2.83;2.07;;;;;;;2.28;100.00;102151.66;5071246;28;20224;-72
2022/04/16 04:08:58;;;;;;;1.80;1.70;;;;;;;2.28;100.00;102161.63;5071445;28;20700;-73
2022/04/16 04:11:23;;;;;;;5.47;2.33;;;;;;;2.13;100.00;102153.81;5071620;28;20178;-72
2022/04/16 04:13:48;;;;;;;2.13;1.93;;;;;;;2.09;100.00;102166.06;5071267;28;20550;-72
2022/04/16 04:16:14;;;;;;;1.80;1.70;;;;;;;2.10;100.00;102170.41;5072791;28;20174;-73
2022/04/16 04:18:39;;;;;;;3.57;1.70;;;;;;;2.09;100.00;102161.50;5072710;28;20518;-73
2022/04/16 04:21:04;;;;;;;4.70;2.53;;;;;;;2.11;100.00;102163.97;5071323;28;20171;-73
2022/04/16 04:23:30;;;;;;;3.20;1.90;;;;;;;2.03;100.00;102173.13;5072612;28;20201;-73
2022/04/16 04:25:55;;;;;;;2.97;2.20;;;;;;;2.02;100.00;102179.53;5071615;28;20210;-76
2022/04/16 04:28:20;;;;;;;2.63;2.17;;;;;;;1.97;100.00;102173.16;5070981;28;20670;-74
2022/04/16 04:30:46;;;;;;;4.10;2.50;;;;;;;1.92;100.00;102170.25;5072271;28;20217;-73
2022/04/16 04:33:11;;;;;;;2.03;1.83;;;;;;;1.84;100.00;102176.69;5072180;28;20174;-72
2022/04/16 04:35:37;;;;;;;2.63;2.43;;;;;;;1.75;100.00;102188.75;5072588;28;20193;-73
2022/04/16 04:38:02;;;;;;;2.97;2.37;;;;;;;1.74;100.00;102185.22;5072175;28;20467;-74
2022/04/16 04:40:29;;;;;;;2.80;2.30;;;;;;;1.73;100.00;102188.09;5071889;28;20183;-72
2022/04/16 04:42:54;;;;;;;1.73;1.63;;;;;;;1.72;100.00;102184.59;5071699;28;20170;-73
2022/04/16 04:45:20;;;;;;;3.33;2.53;;;;;;;1.72;100.00;102187.28;5071610;28;20264;-72
2022/04/16 04:47:45;;;;;;;4.03;2.40;;;;;;;1.75;100.00;102196.84;5071772;28;20638;-73
2022/04/16 04:50:11;;;;;;;3.07;2.40;;;;;;;1.79;100.00;102190.81;5070772;28;20237;-73
2022/04/16 04:52:38;;;;;;;3.40;2.40;;;;;;;1.78;100.00;102204.50;5070776;28;20170;-72
2022/04/16 04:55:07;;;;;;;2.47;2.10;;;;;;;1.76;100.00;102201.19;5071506;28;20634;-74
2022/04/16 04:57:33;;;;;;;2.27;2.07;;;;;;;1.78;100.00;102202.63;5071180;28;20715;-74
2022/04/16 04:59:58;;;;;;;5.90;2.33;;;;;;;1.81;100.00;102205.94;5069867;28;20178;-72
2022/04/16 05:02:23;;;;;;;4.20;2.03;;;;;;;1.83;100.00;102206.56;5071515;28;20200;-73
2022/04/16 05:04:49;;;;;;;2.67;2.40;;;;;;;1.82;100.00;102216.50;5071841;28;20255;-76
2022/04/16 05:07:14;;;;;;;2.23;2.10;;;;;;;1.86;100.00;102208.81;5070108;28;20215;-73
2022/04/16 05:09:39;;;;;;;3.30;2.83;;;;;;;1.90;100.00;102215.47;5071445;28;20280;-72
2022/04/16 05:12:05;;;;;;;2.97;2.53;;;;;;;1.90;100.00;102220.84;5070316;28;20209;-73
2022/04/16 05:14:34;;;;;;;4.70;2.77;;;;;;;1.92;100.00;102221.47;5071440;28;20175;-73
2022/04/16 05:16:59;;;;;;;2.90;2.60;;;;;;;1.97;100.00;102219.78;5069842;28;20266;-75
2022/04/16 05:19:25;;;;;;;3.10;2.67;;;;;;;2.04;100.00;102228.72;5071518;28;20278;-75
2022/04/16 05:21:50;;;;;;;5.40;2.50;;;;;;;2.05;100.00;102235.75;5071216;28;20179;-73
2022/04/16 05:24:15;;;;;;;4.23;3.00;;;;;;;2.06;100.00;102239.28;5070284;28;20327;-72
2022/04/16 05:26:41;;;;;;;3.50;2.50;;;;;;;2.06;100.00;102258.97;5071328;28;20174;-73
2022/04/16 05:29:07;;;;;;;2.17;1.97;;;;;;;2.13;100.00;102258.13;5069346;28;20178;-73
2022/04/16 05:31:33;;;;;;;4.37;2.50;;;;;;;2.25;100.00;102261.81;5070937;28;20182;-73
2022/04/16 05:36:44;;;;;;;3.37;3.07;;;;;;;2.19;100.00;102270.78;5070755;28;20221;-74
2022/04/16 05:39:09;;;;;;;2.60;2.40;;;;;;;2.27;100.00;102275.94;5070424;28;20178;-72
2022/04/16 05:41:35;;;;;;;2.67;2.37;;;;;;;2.43;100.00;102293.53;5070759;28;20228;-78
2022/04/16 05:44:04;;;;;;;3.17;2.73;;;;;;;2.49;100.00;102296.22;5069294;28;20675;-72
2022/04/16 05:46:31;;;;;;;5.17;2.73;;;;;;;2.59;100.00;102295.75;5070535;28;20194;-79
2022/04/16 05:48:56;;;;;;;3.80;2.63;;;;;;;2.68;100.00;102305.28;5070385;28;20520;-74
2022/04/16 05:51:23;;;;;;;3.87;2.77;;;;;;;2.61;100.00;102312.59;5070522;28;20166;-73
2022/04/16 05:53:49;;;;;;;2.87;1.83;;;;;;;2.74;100.00;102311.69;5070559;28;20198;-76
2022/04/16 05:56:15;;;;;;;3.17;2.47;;;;;;;2.65;100.00;102316.50;5070407;28;20171;-83
2022/04/16 05:58:44;;;;;;;2.73;2.13;;;;;;;2.93;100.00;102308.09;5069750;28;20174;-74
2022/04/16 06:01:11;;;;;;;2.90;2.57;;;;;;;2.88;100.00;102311.41;5069050;28;20175;-75
2022/04/16 06:03:39;;;;;;;6.50;2.50;;;;;;;2.88;100.00;102310.59;5069101;28;20185;-73
2022/04/16 06:06:05;;;;;;;3.73;2.23;;;;;;;2.85;100.00;102311.03;5070378;28;20271;-73
2022/04/16 06:08:30;;;;;;;2.80;2.00;;;;;;;2.91;100.00;102310.19;5070018;28;20629;-73
2022/04/16 06:10:56;;;;;;;3.20;2.07;;;;;;;3.04;100.00;102318.22;5070414;28;20261;-73
2022/04/16 06:13:21;;;;;;;3.17;2.37;;;;;;;2.95;100.00;102312.22;5066884;28;20205;-81
2022/04/16 06:15:46;;;;;;;2.40;2.20;;;;;;;3.06;100.00;102318.84;5070513;28;20196;-80
2022/04/16 06:18:13;;;;;;;2.30;1.97;;;;;;;3.13;100.00;102318.78;5069325;28;20185;-73
2022/04/16 06:20:38;;;;;;;4.40;2.30;;;;;;;3.14;100.00;102320.44;5070686;28;20649;-74
2022/04/16 06:23:05;;;;;;;2.00;1.90;;;;;;;3.29;100.00;102315.59;5070726;28;20185;-77
2022/04/16 06:25:30;;;;;;;2.63;2.43;;;;;;;3.42;100.00;102312.81;5069263;28;20194;-74
2022/04/16 06:27:55;;;;;;;2.10;1.90;;;;;;;3.49;100.00;102310.06;5070530;28;20171;-79
2022/04/16 06:30:21;;;;;;;2.67;1.97;;;;;;;3.47;99.86;102309.44;5069302;28;20178;-77
2022/04/16 06:32:46;;;;;;;1.97;1.73;;;;;;;3.47;98.89;102307.59;5069266;28;20622;-77
2022/04/16 06:35:12;;;;;;;2.20;1.90;;;;;;;3.50;98.35;102309.84;5070557;28;20209;-76
2022/04/16 06:37:38;;;;;;;3.13;2.10;;;;;;;3.65;97.81;102317.66;5070794;28;20179;-75
2022/04/16 06:40:06;;;;;;;2.07;1.53;;;;;;;3.77;97.79;102307.78;5070318;28;20188;-76
2022/04/16 06:42:31;;;;;;;3.10;2.00;;;;;;;3.69;96.22;102316.16;5070565;28;20175;-73
2022/04/16 06:44:57;;;;;;;1.80;1.70;;;;;;;3.82;96.45;102307.13;5070415;28;20205;-77
2022/04/16 06:47:23;;;;;;;2.63;1.93;;;;;;;3.80;96.21;102314.63;5070281;28;20264;-76
2022/04/16 06:49:49;;;;;;;1.90;1.70;;;;;;;3.70;95.88;102303.47;5073388;28;20174;-79
2022/04/16 06:52:17;;;;;;;2.67;1.73;;;;;;;3.54;95.90;102311.06;5072990;28;20265;-76
2022/04/16 06:54:42;;;;;;;2.73;1.90;;;;;;;3.57;96.86;102301.69;5072753;28;20538;-76
2022/04/16 06:57:07;;;;;;;2.87;2.33;;;;;;;3.56;96.89;102305.44;5073635;28;20478;-73
2022/04/16 06:59:33;;;;;;;2.90;2.47;;;;;;;3.76;96.34;102299.88;5072337;28;20277;-73
2022/04/16 07:01:58;;;;;;;7.30;2.77;;;;;;;3.70;94.78;102301.59;5074732;28;20174;-74
2022/04/16 07:04:23;;;;;;;4.00;3.13;;;;;;;3.86;94.34;102302.91;5074731;28;20200;-75
2022/04/16 07:06:49;;;;;;;3.13;2.83;;;;;;;3.96;94.31;102305.97;5075362;28;20209;-77
2022/04/16 07:09:14;;;;;;;2.43;2.23;;;;;;;4.12;93.28;102288.34;5074050;28;20171;-79
2022/04/16 07:11:39;;;;;;;3.93;2.53;;;;;;;4.16;91.85;102284.94;5073904;28;20174;-73
2022/04/16 07:14:05;;;;;;;8.13;3.20;;;;;;;4.06;90.93;102286.53;5074021;28;20626;-72
2022/04/16 07:16:30;;;;;;;4.67;3.63;;;;;;;4.04;90.80;102288.59;5072550;28;20643;-73
2022/04/16 07:18:55;;;;;;;4.10;3.13;;;;;;;4.28;91.37;102292.34;5073704;28;20175;-73
2022/04/16 07:21:21;;;;;;;4.77;4.30;;;;;;;4.37;90.37;102291.84;5072587;28;20178;-72
2022/04/16 07:23:46;;;;;;;3.87;3.57;;;;;;;4.42;90.55;102285.72;5073745;28;20588;-72
2022/04/16 07:26:11;;;;;;;4.23;3.93;;;;;;;4.29;90.01;102278.59;5073733;28;20532;-74
2022/04/16 07:28:37;;;;;;;3.37;3.03;;;;;;;4.43;90.39;102293.63;5073532;28;20523;-73
2022/04/16 07:31:02;;;;;;;4.20;3.90;;;;;;;4.66;88.72;102290.25;5072220;28;20171;-72
2022/04/16 07:33:31;;;;;;;3.93;3.30;;;;;;;4.78;88.03;102296.56;5072615;28;20630;-72
2022/04/16 07:35:57;;;;;;;3.60;3.30;;;;;;;4.55;87.11;102290.19;5072237;28;20178;-76
2022/04/16 07:38:22;;;;;;;3.90;3.60;;;;;;;4.68;87.09;102293.56;5073244;28;20684;-78
2022/04/16 07:40:48;;;;;;;4.00;3.60;;;;;;;4.64;86.17;102299.66;5073416;28;20526;-73
2022/04/16 07:43:15;;;;;;;3.40;3.10;;;;;;;4.86;85.21;102298.13;5073440;28;20166;-74
2022/04/16 07:45:41;;;;;;;5.83;3.80;;;;;;;4.86;84.81;102302.72;5073791;28;20195;-77
2022/04/16 07:48:07;;;;;;;3.23;2.93;;;;;;;4.95;84.34;102307.59;5073178;28;20198;-73
2022/04/16 07:50:32;;;;;;;2.97;2.37;;;;;;;4.78;84.25;102309.28;5073330;28;20185;-73
2022/04/16 07:52:57;;;;;;;3.90;3.60;;;;;;;4.88;83.94;102312.25;5071902;28;20170;-78
2022/04/16 07:55:23;;;;;;;3.47;3.20;;;;;;;4.85;83.10;102317.31;5073272;28;20175;-73
2022/04/16 07:57:48;;;;;;;3.67;3.23;;;;;;;4.69;83.14;102314.16;5073019;28;20170;-73
2022/04/16 08:00:14;;;;;;;3.97;3.63;;;;;;;4.95;83.76;102313.03;5071540;28;20629;-75
2022/04/16 08:02:40;;;;;;;3.97;3.67;;;;;;;4.95;83.28;102313.03;5073120;28;20182;-73
2022/04/16 08:05:06;;;;;;;4.03;3.70;;;;;;;4.94;84.08;102315.97;5072952;28;20527;-76
2022/04/16 08:07:32;;;;;;;3.50;3.20;;;;;;;4.91;84.13;102305.56;5071375;28;20178;-74
2022/04/16 08:09:57;;;;;;;3.37;3.10;;;;;;;4.78;82.97;102312.00;5072267;28;20189;-74
2022/04/16 08:12:25;;;;;;;4.17;3.83;;;;;;;4.94;83.31;102321.38;5070951;28;20681;-73
2022/04/16 08:14:50;;;;;;;3.73;3.17;;;;;;;5.14;82.05;102321.94;5071125;28;20189;-72
2022/04/16 08:17:16;;;;;;;5.37;3.20;;;;;;;5.17;82.18;102321.47;5072142;28;20254;-73
2022/04/16 08:19:42;;;;;;;2.83;2.63;;;;;;;5.35;81.82;102324.16;5072219;28;20185;-72
2022/04/16 08:22:10;;;;;;;5.90;4.07;;;;;;;5.48;80.86;102327.72;5072251;28;20174;-73
2022/04/16 08:27:03;;;;;;;3.00;2.80;;;;;;;5.66;78.69;102336.63;5072026;28;20174;-74
2022/04/16 08:29:28;;;;;;;2.83;2.57;;;;;;;5.84;78.06;102338.44;5070645;28;20179;-73
2022/04/16 08:31:54;;;;;;;2.27;2.17;;;;;;;5.75;77.96;102349.84;5069643;28;20202;-76
2022/04/16 08:34:19;;;;;;;3.53;3.27;;;;;;;5.55;77.10;102350.16;5070293;28;20185;-73
2022/04/16 08:36:44;;;;;;;2.73;2.53;;;;;;;5.55;77.31;102336.59;5072497;28;20178;-73
2022/04/16 08:39:10;;;;;;;2.77;2.57;;;;;;;5.95;77.91;102350.41;5070576;28;20545;-73
2022/04/16 08:41:36;;;;;;;2.60;2.40;;;;;;;5.73;77.12;102341.09;5071834;28;20224;-72
2022/04/16 08:44:02;;;;;;;3.23;3.03;;;;;;;6.03;77.87;102339.19;5070484;28;20171;-73
2022/04/16 08:46:32;;;;;;;5.13;3.00;;;;;;;6.07;77.90;102337.66;5072237;28;20182;-73
2022/04/16 08:48:58;;;;;;;2.50;2.27;;;;;;;6.19;78.79;102348.53;5071516;28;20174;-74
2022/04/16 08:51:26;;;;;;;1.93;1.83;;;;;;;5.77;77.54;102345.81;5071750;28;20171;-73
2022/04/16 08:53:51;;;;;;;1.87;1.70;;;;;;;5.82;77.80;102343.25;5070356;28;20260;-73
2022/04/16 08:56:17;;;;;;;3.57;1.50;;;;;;;6.14;78.00;102346.53;5071421;28;20727;-75
2022/04/16 08:58:43;;;;;;;1.77;1.60;;;;;;;6.28;76.18;102344.41;5071038;28;20171;-74
2022/04/16 09:01:08;;;;;;;2.10;1.90;;;;;;;6.38;75.51;102349.25;5070031;28;20194;-73
2022/04/16 09:03:35;;;;;;;2.50;1.70;;;;;;;6.51;75.47;102346.31;5070088;28;20185;-73
2022/04/16 09:06:02;;;;;;;1.50;1.40;;;;;;;6.35;74.76;102349.69;5071381;28;20730;-73
2022/04/16 09:08:29;;;;;;;4.77;2.13;;;;;;;6.75;75.05;102347.06;5069816;28;20459;-74
2022/04/16 09:11:05;;;;;;;2.47;1.90;;;;;;;6.79;73.69;102351.78;5071193;28;20175;-73
2022/04/16 09:13:30;;;;;;;2.50;2.30;;;;;;;7.00;74.56;102349.50;5071015;28;20177;-73
2022/04/16 09:16:08;;;;;;;2.20;2.10;;;;;;;6.79;73.65;102349.06;5070186;28;20170;-73
2022/04/16 09:18:46;;;;;;;3.53;1.77;;;;;;;6.11;74.29;102349.72;5069627;28;20213;-74
2022/04/16 09:21:15;;;;;;;1.80;1.67;;;;;;;6.36;74.73;102351.34;5071113;28;20209;-74
2022/04/16 09:23:53;;;;;;;2.00;1.80;;;;;;;6.68;75.44;102343.69;5070973;28;20675;-73
2022/04/16 09:26:37;;;;;;;2.10;1.57;;;;;;;6.70;74.69;102346.97;5070982;28;20197;-74
2022/04/16 09:29:14;;;;;;;3.27;1.63;;;;;;;6.81;74.13;102340.72;5070745;28;20209;-72
2022/04/16 09:31:43;;;;;;;2.20;2.03;;;;;;;6.63;72.31;102341.66;5070944;28;20162;-73
2022/04/16 09:34:28;;;;;;;1.57;1.03;;;;;;;6.81;71.53;102343.41;5070783;28;20170;-73
2022/04/16 09:36:54;;;;;;;1.10;1.00;;;;;;;6.95;71.76;102347.53;5070404;28;20178;-74
2022/04/16 09:39:22;;;;;;;0.93;0.83;;;;;;;6.81;70.61;102335.28;5070571;28;20641;-73
2022/04/16 09:41:51;;;;;;;2.13;1.03;;;;;;;6.82;70.97;102339.63;5070839;28;20167;-74
2022/04/16 09:44:21;;;;;;;1.03;1.03;;;;;;;6.95;70.96;102343.97;5070681;28;20182;-73
2022/04/16 09:46:48;;;;;;;1.20;1.10;;;;;;;7.10;71.33;102338.84;5069243;28;20185;-73
2022/04/16 09:49:16;;;;;;;1.47;1.37;;;;;;;7.24;71.47;102344.84;5070403;28;20167;-73
2022/04/16 09:51:43;;;;;;;1.20;1.10;;;;;;;7.20;70.72;102332.78;5069333;28;20178;-74
2022/04/16 09:54:09;;;;;;;1.57;0.80;;;;;;;7.20;69.76;102340.94;5069212;28;20178;-74
2022/04/16 09:56:36;;;;;;;1.10;1.00;;;;;;;7.45;69.82;102336.81;5070460;28;20186;-73
2022/04/16 09:59:04;;;;;;;2.83;1.07;;;;;;;7.70;69.64;102341.06;5070071;28;20173;-73
2022/04/16 10:01:30;;;;;;;2.50;1.40;;;;;;;7.38;67.73;102335.31;5070461;28;20273;-73
2022/04/16 10:03:57;;;;;;;1.20;1.10;;;;;;;7.69;69.60;102333.97;5069179;28;20313;-73
2022/04/16 10:06:22;;;;;;;2.63;1.00;;;;;;;7.70;69.36;102344.63;5070932;28;20221;-73
2022/04/16 10:08:51;;;;;;;1.87;1.10;;;;;;;7.76;67.85;102343.63;5068782;28;20204;-72
2022/04/16 10:11:32;;;;;;;1.67;1.00;;;;;;;7.73;66.82;102338.66;5069085;28;20231;-74
2022/04/16 10:14:04;;;;;;;4.17;1.20;;;;;;;8.12;67.58;102343.41;5069078;28;20177;-73
2022/04/16 10:16:40;;;;;;;1.40;0.70;;;;;;;7.96;66.99;102342.34;5070387;28;20166;-72
2022/04/16 10:19:15;;;;;;;2.07;1.00;;;;;;;7.81;65.01;102336.59;5070665;28;20212;-72
2022/04/16 10:21:41;;;;;;;1.00;0.90;;;;;;;7.65;66.56;102347.22;5070289;28;20177;-73
2022/04/16 10:24:06;;;;;;;0.90;0.90;;;;;;;8.23;68.94;102354.19;5068042;28;20536;-72
2022/04/16 10:26:39;;;;;;;1.70;1.10;;;;;;;7.76;66.68;102354.50;5068838;28;20691;-72
2022/04/16 10:29:04;;;;;;;1.77;1.00;;;;;;;8.03;66.31;102342.97;5070199;28;20175;-73
2022/04/16 10:31:32;;;;;;;1.73;1.30;;;;;;;7.91;65.91;102340.31;5070184;28;20166;-74
2022/04/16 10:34:05;;;;;;;1.67;1.17;;;;;;;8.07;66.33;102338.69;5070253;28;20174;-73
2022/04/16 10:36:32;;;;;;;3.10;0.90;;;;;;;8.26;64.73;102344.72;5070149;28;20381;-72
2022/04/16 10:38:58;;;;;;;1.23;1.10;;;;;;;8.46;64.58;102341.50;5069763;28;20174;-72
2022/04/16 10:41:26;;;;;;;0.87;0.87;;;;;;;8.52;65.96;102351.38;5070257;28;20579;-73
2022/04/16 10:44:02;;;;;;;1.07;1.00;;;;;;;8.39;64.77;102344.41;5070570;28;20175;-72
2022/04/16 10:46:46;;;;;;;2.23;1.20;;;;;;;8.48;64.67;102336.59;5070038;28;20193;-72
2022/04/16 10:49:12;;;;;;;1.13;1.00;;;;;;;8.93;65.28;102339.94;5069871;28;20253;-72
2022/04/16 10:51:38;;;;;;;1.33;1.10;;;;;;;8.69;63.11;102330.38;5070196;28;20633;-73
2022/04/16 10:54:27;;;;;;;2.17;1.20;;;;;;;8.80;63.20;102332.13;5068711;28;20308;-73
2022/04/16 10:56:54;;;;;;;1.10;1.00;;;;;;;8.90;62.98;102337.72;5069884;28;20875;-72
2022/04/16 10:59:35;;;;;;;2.13;1.30;;;;;;;8.96;61.88;102335.88;5069496;28;20174;-74
2022/04/16 11:02:01;;;;;;;1.30;0.83;;;;;;;8.94;62.33;102327.97;5070119;28;20282;-73
2022/04/16 11:04:27;;;;;;;0.87;0.87;;;;;;;8.76;63.10;102324.72;5069795;28;20210;-74
2022/04/16 11:06:57;;;;;;;1.20;1.10;;;;;;;9.27;64.12;102325.34;5068429;28;20541;-72
2022/04/16 11:09:23;;;;;;;1.20;1.10;;;;;;;9.53;62.98;102333.50;5069753;28;20166;-72
2022/04/16 11:11:51;;;;;;;1.57;0.90;;;;;;;9.17;60.17;102336.97;5068529;28;20626;-74
2022/04/16 11:14:17;;;;;;;2.17;1.27;;;;;;;9.56;62.17;102334.09;5069585;28;20206;-73
2022/04/16 11:16:46;;;;;;;1.77;1.43;;;;;;;9.13;60.99;102341.28;5069548;28;20626;-72
2022/04/16 11:19:16;;;;;;;1.43;1.33;;;;;;;8.75;61.48;102325.81;5068047;28;20176;-72
2022/04/16 11:21:42;;;;;;;1.43;1.33;;;;;;;9.30;63.15;102327.56;5068530;28;20171;-73
2022/04/16 11:24:08;;;;;;;1.30;1.20;;;;;;;9.62;62.08;102325.69;5068193;28;20232;-73
2022/04/16 11:34:53;;;;;;;1.20;0.93;;;;;;;9.69;58.53;102318.13;5070852;28;20185;-73
2022/04/16 11:37:19;;;;;;;1.13;1.00;;;;;;;9.70;56.79;102321.69;5071468;28;20534;-72
2022/04/16 11:39:46;;;;;;;0.80;0.80;;;;;;;9.00;56.37;102322.59;5071637;28;20183;-72
2022/04/16 11:42:11;;;;;;;2.30;1.07;;;;;;;9.30;58.50;102317.47;5073012;28;20189;-73
2022/04/16 11:44:40;;;;;;;1.60;0.80;;;;;;;9.91;60.34;102326.22;5072660;28;20234;-76
2022/04/16 11:47:09;;;;;;;3.10;0.80;;;;;;;10.16;59.17;102308.41;5072958;28;20175;-76
2022/04/16 11:49:44;;;;;;;1.07;1.00;;;;;;;10.16;57.87;102303.75;5072904;28;20637;-72